createdAt,value
2023-02-20T00:00:48.017Z,6.92
2023-02-20T00:03:16.026Z,6.92
2023-02-20T00:05:44.602Z,6.89
2023-02-20T00:08:11.425Z,6.87
2023-02-20T00:10:37.960Z,6.85
2023-02-20T00:13:09.037Z,6.82
2023-02-20T00:15:35.591Z,6.80
2023-02-20T00:18:02.148Z,6.76
2023-02-20T00:20:30.450Z,6.75
2023-02-20T00:22:57.153Z,6.75
2023-02-20T00:25:23.860Z,6.72
2023-02-20T00:27:52.420Z,6.72
2023-02-20T00:30:21.909Z,6.70
2023-02-20T00:32:51.125Z,6.69
2023-02-20T00:35:20.700Z,6.67
2023-02-20T00:37:47.727Z,6.64
2023-02-20T00:40:15.037Z,6.63
2023-02-20T00:42:43.389Z,6.63
2023-02-20T00:45:13.634Z,6.63
2023-02-20T00:47:40.415Z,6.61
2023-02-20T00:50:08.291Z,6.58
2023-02-20T00:52:36.135Z,6.56
2023-02-20T00:55:03.646Z,6.54
2023-02-20T00:57:34.607Z,6.54
2023-02-20T01:00:01.225Z,6.53
2023-02-20T01:02:29.980Z,6.52
2023-02-20T01:04:57.173Z,6.54
2023-02-20T01:07:23.820Z,6.53
2023-02-20T01:09:50.406Z,6.52
2023-02-20T01:12:17.749Z,6.51
2023-02-20T01:14:44.252Z,6.50
2023-02-20T01:17:12.940Z,6.51
2023-02-20T01:19:39.600Z,6.48
2023-02-20T01:22:08.841Z,6.46
2023-02-20T01:24:35.372Z,6.44
2023-02-20T01:27:03.712Z,6.41
2023-02-20T01:29:30.497Z,6.39
2023-02-20T01:31:57.099Z,6.37
2023-02-20T01:34:23.838Z,6.35
2023-02-20T01:36:53.232Z,6.34
2023-02-20T01:39:38.304Z,6.33
2023-02-20T01:42:10.049Z,6.31
2023-02-20T01:44:37.659Z,6.29
2023-02-20T01:47:16.316Z,6.28
2023-02-20T01:50:00.014Z,6.25
2023-02-20T01:52:31.312Z,6.22
2023-02-20T01:55:03.785Z,6.20
2023-02-20T01:57:32.934Z,6.17
2023-02-20T02:00:10.619Z,6.12
2023-02-20T02:02:44.079Z,6.06
2023-02-20T02:05:12.224Z,6.06
2023-02-20T02:07:39.814Z,6.02
2023-02-20T02:10:33.376Z,5.96
2023-02-20T02:13:00.542Z,5.89
2023-02-20T02:15:27.267Z,5.81
2023-02-20T02:18:22.996Z,5.75
2023-02-20T02:20:52.271Z,5.68
2023-02-20T02:23:35.414Z,5.60
2023-02-20T02:26:14.259Z,5.53
2023-02-20T02:28:53.121Z,5.45
2023-02-20T02:31:38.107Z,5.39
2023-02-20T02:34:07.653Z,5.28
2023-02-20T02:36:39.550Z,5.15
2023-02-20T02:39:30.096Z,5.05
2023-02-20T02:42:06.624Z,4.93
2023-02-20T02:44:36.767Z,4.85
2023-02-20T02:47:08.359Z,4.73
2023-02-20T02:49:50.150Z,4.65
2023-02-20T02:52:48.584Z,4.61
2023-02-20T02:55:23.540Z,4.51
2023-02-20T02:57:52.749Z,4.43
2023-02-20T03:00:26.325Z,4.35
2023-02-20T03:03:01.770Z,4.19
2023-02-20T03:05:40.288Z,4.12
2023-02-20T03:08:22.556Z,4.07
2023-02-20T03:10:53.650Z,4.02
2023-02-20T03:13:43.705Z,3.98
2023-02-20T03:16:12.921Z,3.89
2023-02-20T03:18:42.068Z,3.85
2023-02-20T03:21:18.745Z,3.81
2023-02-20T03:23:51.632Z,3.71
2023-02-20T03:26:25.384Z,3.63
2023-02-20T03:29:04.272Z,3.53
2023-02-20T03:31:50.961Z,3.43
2023-02-20T03:34:45.038Z,3.34
2023-02-20T03:37:37.945Z,3.23
2023-02-20T03:40:28.236Z,3.13
2023-02-20T03:43:22.049Z,3.05
2023-02-20T03:45:52.206Z,3.03
2023-02-20T03:48:39.148Z,2.99
2023-02-20T03:51:05.865Z,2.93
2023-02-20T03:53:33.444Z,2.93
2023-02-20T03:56:11.711Z,2.89
2023-02-20T03:58:43.098Z,2.86
2023-02-20T04:01:15.787Z,2.85
2023-02-20T04:03:47.480Z,2.82
2023-02-20T04:06:15.745Z,2.75
2023-02-20T04:08:54.807Z,2.68
2023-02-20T04:11:26.790Z,2.66
2023-02-20T04:13:57.055Z,2.62
2023-02-20T04:16:24.901Z,2.61
2023-02-20T04:18:51.584Z,2.55
2023-02-20T04:21:35.637Z,2.49
2023-02-20T04:24:17.247Z,2.44
2023-02-20T04:26:44.564Z,2.37
2023-02-20T04:29:11.617Z,2.32
2023-02-20T04:31:40.549Z,2.29
2023-02-20T04:34:09.343Z,2.28
2023-02-20T04:36:35.833Z,2.30
2023-02-20T04:39:02.334Z,2.31
2023-02-20T04:41:29.064Z,2.29
2023-02-20T04:44:15.533Z,2.24
2023-02-20T04:46:44.084Z,2.18
2023-02-20T04:49:12.894Z,2.21
2023-02-20T04:51:39.453Z,2.23
2023-02-20T04:54:07.709Z,2.22
2023-02-20T04:56:34.192Z,2.19
2023-02-20T04:59:03.584Z,2.15
2023-02-20T05:01:32.244Z,2.12
2023-02-20T05:03:58.925Z,2.10
2023-02-20T05:06:25.504Z,2.10
2023-02-20T05:08:52.072Z,2.08
2023-02-20T05:11:18.565Z,2.08
2023-02-20T05:13:45.222Z,2.06
2023-02-20T05:16:15.796Z,2.02
2023-02-20T05:18:42.497Z,1.99
2023-02-20T05:21:34.368Z,1.96
2023-02-20T05:24:00.915Z,1.95
2023-02-20T05:26:27.828Z,1.93
2023-02-20T05:28:56.471Z,1.88
2023-02-20T05:31:23.088Z,1.84
2023-02-20T05:33:49.631Z,1.79
2023-02-20T05:36:19.158Z,1.77
2023-02-20T05:38:49.121Z,1.74
2023-02-20T05:41:16.095Z,1.67
2023-02-20T05:43:44.392Z,1.62
2023-02-20T05:46:11.282Z,1.61
2023-02-20T05:48:39.945Z,1.61
2023-02-20T05:51:06.718Z,1.57
2023-02-20T05:53:33.427Z,1.51
2023-02-20T05:55:59.920Z,1.48
2023-02-20T05:58:26.663Z,1.47
2023-02-20T06:00:55.451Z,1.45
2023-02-20T06:03:21.897Z,1.44
2023-02-20T06:05:48.608Z,1.43
2023-02-20T06:08:15.123Z,1.48
2023-02-20T06:10:41.625Z,1.48
2023-02-20T06:13:20.636Z,1.48
2023-02-20T06:15:47.692Z,1.42
2023-02-20T06:18:14.151Z,1.37
2023-02-20T06:20:40.619Z,1.33
2023-02-20T06:23:07.354Z,1.28
2023-02-20T06:25:33.809Z,1.24
2023-02-20T06:28:02.540Z,1.24
2023-02-20T06:30:29.059Z,1.23
2023-02-20T06:32:55.582Z,1.25
2023-02-20T06:35:29.786Z,1.27
2023-02-20T06:37:56.339Z,1.28
2023-02-20T06:40:22.916Z,1.30
2023-02-20T06:42:49.717Z,1.35
2023-02-20T06:45:16.291Z,1.41
2023-02-20T06:47:45.695Z,1.47
2023-02-20T06:50:14.430Z,1.53
2023-02-20T06:52:40.964Z,1.63
2023-02-20T06:55:11.516Z,1.73
2023-02-20T06:57:39.742Z,1.83
2023-02-20T07:00:06.929Z,1.91
2023-02-20T07:02:34.904Z,2.02
2023-02-20T07:05:01.404Z,2.15
2023-02-20T07:07:27.943Z,2.24
2023-02-20T07:09:54.788Z,2.31
2023-02-20T07:12:21.531Z,2.44
2023-02-20T07:14:50.853Z,2.50
2023-02-20T07:17:17.334Z,2.65
2023-02-20T07:19:44.015Z,2.82
2023-02-20T07:22:12.853Z,2.92
2023-02-20T07:24:41.699Z,3.02
2023-02-20T07:27:10.846Z,3.10
2023-02-20T07:29:37.744Z,3.22
2023-02-20T07:32:04.395Z,3.32
2023-02-20T07:34:31.068Z,3.27
2023-02-20T07:36:57.512Z,3.37
2023-02-20T07:39:25.076Z,3.56
2023-02-20T07:41:58.304Z,3.75
2023-02-20T07:44:24.781Z,3.85
2023-02-20T07:46:51.282Z,3.98
2023-02-20T07:49:19.544Z,3.99
2023-02-20T07:51:46.040Z,4.04
2023-02-20T07:54:14.793Z,4.23
2023-02-20T07:56:43.786Z,4.43
2023-02-20T07:59:10.338Z,4.63
2023-02-20T08:01:36.870Z,4.73
2023-02-20T08:04:04.000Z,4.82
2023-02-20T08:06:30.730Z,4.94
2023-02-20T08:09:00.608Z,5.23
2023-02-20T08:11:27.282Z,5.38
2023-02-20T08:13:55.675Z,5.52
2023-02-20T08:16:23.133Z,5.73
2023-02-20T08:18:56.218Z,5.84
2023-02-20T08:21:23.319Z,6.03
2023-02-20T08:23:49.859Z,6.25
2023-02-20T08:26:16.411Z,6.41
2023-02-20T08:28:42.994Z,6.59
2023-02-20T08:31:22.857Z,6.83
2023-02-20T08:34:04.324Z,6.97
2023-02-20T08:36:31.403Z,7.22
2023-02-20T08:39:00.240Z,7.36
2023-02-20T08:41:27.610Z,7.47
2023-02-20T08:43:57.544Z,7.61
2023-02-20T08:46:24.309Z,7.78
2023-02-20T08:48:50.814Z,7.79
2023-02-20T08:51:21.295Z,7.96
2023-02-20T08:53:47.891Z,7.78
2023-02-20T08:56:20.672Z,7.79
2023-02-20T08:58:47.688Z,7.89
2023-02-20T09:01:14.229Z,8.06
2023-02-20T09:03:43.699Z,8.34
2023-02-20T09:06:10.560Z,8.58
2023-02-20T09:08:37.471Z,8.69
2023-02-20T09:11:16.225Z,8.89
2023-02-20T09:13:45.585Z,9.01
2023-02-20T09:16:17.162Z,9.01
2023-02-20T09:18:46.360Z,9.10
2023-02-20T09:21:15.425Z,9.38
2023-02-20T09:23:41.937Z,9.31
2023-02-20T09:26:11.071Z,9.48
2023-02-20T09:28:37.912Z,9.81
2023-02-20T09:31:04.640Z,10.04
2023-02-20T09:33:38.841Z,10.19
2023-02-20T09:36:05.962Z,10.17
2023-02-20T09:38:32.500Z,10.51
2023-02-20T09:41:02.031Z,10.88
2023-02-20T09:43:37.493Z,11.13
2023-02-20T09:46:17.046Z,11.52
2023-02-20T09:48:58.970Z,12.92
2023-02-20T09:51:29.681Z,13.88
2023-02-20T09:54:04.883Z,14.56
2023-02-20T09:56:36.069Z,15.17
2023-02-20T09:59:32.850Z,15.69
2023-02-20T10:02:12.865Z,15.41
2023-02-20T10:04:52.295Z,15.49
2023-02-20T10:07:36.435Z,15.70
2023-02-20T10:10:18.953Z,15.49
2023-02-20T10:12:57.209Z,15.57
2023-02-20T10:15:38.695Z,15.29
2023-02-20T10:18:07.284Z,14.08
2023-02-20T10:20:40.173Z,13.74
2023-02-20T10:23:25.338Z,13.34
2023-02-20T10:25:57.842Z,12.98
2023-02-20T10:28:24.846Z,12.75
2023-02-20T10:30:54.476Z,12.80
2023-02-20T10:33:43.807Z,12.86
2023-02-20T10:36:23.840Z,12.99
2023-02-20T10:38:55.300Z,13.10
2023-02-20T10:41:38.277Z,13.07
2023-02-20T10:44:21.872Z,13.15
2023-02-20T10:47:09.404Z,13.18
2023-02-20T10:49:49.828Z,13.13
2023-02-20T10:52:33.963Z,13.00
2023-02-20T10:55:04.072Z,12.60
2023-02-20T10:57:48.283Z,12.78
2023-02-20T11:00:33.825Z,13.11
2023-02-20T11:03:09.825Z,13.21
2023-02-20T11:05:43.231Z,13.13
2023-02-20T11:08:10.025Z,13.17
2023-02-20T11:10:38.832Z,13.31
2023-02-20T11:13:14.137Z,13.37
2023-02-20T11:15:43.937Z,13.41
2023-02-20T11:18:21.098Z,13.62
2023-02-20T11:20:51.483Z,13.73
2023-02-20T11:23:43.248Z,13.50
2023-02-20T11:26:21.971Z,13.51
2023-02-20T11:29:02.459Z,13.59
2023-02-20T11:31:31.397Z,13.66
2023-02-20T11:33:58.260Z,13.70
2023-02-20T11:36:27.740Z,13.84
2023-02-20T11:39:17.277Z,13.91
2023-02-20T11:41:43.911Z,13.93
2023-02-20T11:44:10.631Z,13.95
2023-02-20T11:46:39.728Z,13.92
2023-02-20T11:49:10.457Z,14.00
2023-02-20T11:51:48.671Z,14.07
2023-02-20T11:54:22.373Z,14.21
2023-02-20T11:56:57.561Z,14.35
2023-02-20T11:59:34.834Z,14.41
2023-02-20T12:02:18.495Z,14.37
2023-02-20T12:05:01.556Z,14.38
2023-02-20T12:07:34.761Z,14.40
2023-02-20T12:10:20.616Z,14.12
2023-02-20T12:12:49.166Z,14.25
2023-02-20T12:15:19.263Z,14.28
2023-02-20T12:18:15.830Z,14.31
2023-02-20T12:20:53.532Z,14.43
2023-02-20T12:23:32.768Z,14.59
2023-02-20T12:26:30.702Z,14.53
2023-02-20T12:29:17.118Z,14.47
2023-02-20T12:31:55.842Z,14.73
2023-02-20T12:34:46.610Z,14.74
2023-02-20T12:37:37.246Z,14.74
2023-02-20T12:40:33.033Z,14.79
2023-02-20T12:43:06.126Z,14.96
2023-02-20T12:45:42.322Z,14.81
2023-02-20T12:48:55.094Z,14.82
2023-02-20T12:51:38.236Z,14.90
2023-02-20T12:54:07.653Z,15.08
2023-02-20T12:56:46.347Z,15.24
2023-02-20T12:59:49.397Z,15.16
2023-02-20T13:02:42.181Z,15.27
2023-02-20T13:08:12.141Z,15.20
2023-02-20T13:10:51.057Z,15.08
2023-02-20T13:13:20.351Z,15.11
2023-02-20T13:16:01.691Z,15.09
2023-02-20T13:18:30.324Z,15.11
2023-02-20T13:21:02.093Z,15.08
2023-02-20T13:23:36.731Z,15.08
2023-02-20T13:26:24.404Z,15.11
2023-02-20T13:28:53.199Z,15.02
2023-02-20T13:31:42.442Z,14.94
2023-02-20T13:34:10.630Z,14.86
2023-02-20T13:36:39.697Z,14.80
2023-02-20T13:39:34.426Z,14.81
2023-02-20T13:42:25.274Z,14.83
2023-02-20T13:44:52.817Z,14.86
2023-02-20T13:47:36.255Z,14.81
2023-02-20T13:50:06.467Z,14.85
2023-02-20T13:52:39.158Z,14.87
2023-02-20T13:55:13.120Z,14.89
2023-02-20T13:58:01.455Z,14.86
2023-02-20T14:00:55.705Z,14.88
2023-02-20T14:03:24.165Z,14.91
2023-02-20T14:06:08.522Z,14.95
2023-02-20T14:08:36.937Z,14.95
2023-02-20T14:11:11.496Z,14.95
2023-02-20T14:13:41.780Z,14.92
2023-02-20T14:16:27.069Z,14.90
2023-02-20T14:19:00.747Z,14.90
2023-02-20T14:21:29.585Z,14.98
2023-02-20T14:23:57.064Z,14.96
2023-02-20T14:26:31.173Z,14.83
2023-02-20T14:29:03.710Z,14.68
2023-02-20T14:31:35.206Z,14.63
2023-02-20T14:34:10.001Z,14.57
2023-02-20T14:37:16.896Z,14.49
2023-02-20T14:40:09.718Z,14.51
2023-02-20T14:42:41.184Z,14.54
2023-02-20T14:45:14.748Z,14.51
2023-02-20T14:47:53.788Z,14.50
2023-02-20T14:50:30.454Z,14.50
2023-02-20T14:53:13.848Z,14.44
2023-02-20T14:55:40.637Z,14.45
2023-02-20T14:58:20.353Z,14.41
2023-02-20T15:00:50.364Z,14.43
2023-02-20T15:03:30.780Z,14.42
2023-02-20T15:06:06.186Z,14.41
2023-02-20T15:08:36.415Z,14.40
2023-02-20T15:11:12.065Z,14.39
2023-02-20T15:13:44.156Z,14.35
2023-02-20T15:16:17.850Z,14.34
2023-02-20T15:18:50.087Z,14.32
2023-02-20T15:21:38.354Z,14.24
2023-02-20T15:24:42.322Z,14.24
2023-02-20T15:27:13.173Z,14.22
2023-02-20T15:29:40.063Z,14.21
2023-02-20T15:32:25.510Z,14.17
2023-02-20T15:34:57.202Z,14.14
2023-02-20T15:37:38.104Z,14.09
2023-02-20T15:40:23.826Z,14.02
2023-02-20T15:42:58.496Z,13.98
2023-02-20T15:45:28.528Z,13.92
2023-02-20T15:47:55.885Z,13.84
2023-02-20T15:50:24.319Z,13.81
2023-02-20T15:52:51.288Z,13.79
2023-02-20T15:55:20.927Z,13.69
2023-02-20T15:57:53.965Z,13.65
2023-02-20T16:00:32.917Z,13.55
2023-02-20T16:03:03.306Z,13.48
2023-02-20T16:05:32.129Z,13.37
2023-02-20T16:07:58.685Z,13.35
2023-02-20T16:10:25.986Z,13.30
2023-02-20T16:12:58.599Z,13.25
2023-02-20T16:15:28.104Z,13.14
2023-02-20T16:17:55.373Z,13.05
2023-02-20T16:20:27.920Z,12.89
2023-02-20T16:22:56.749Z,12.78
2023-02-20T16:25:26.289Z,12.64
2023-02-20T16:27:56.229Z,12.52
2023-02-20T16:30:39.686Z,12.41
2023-02-20T16:33:14.301Z,12.30
2023-02-20T16:35:41.123Z,12.16
2023-02-20T16:38:09.324Z,12.08
2023-02-20T16:40:36.072Z,11.94
2023-02-20T16:43:02.827Z,11.81
2023-02-20T16:45:31.227Z,11.64
2023-02-20T16:47:58.966Z,11.42
2023-02-20T16:50:30.046Z,11.24
2023-02-20T16:52:59.078Z,11.06
2023-02-20T16:55:29.064Z,10.89
2023-02-20T16:57:56.255Z,10.76
2023-02-20T17:00:30.121Z,10.59
2023-02-20T17:02:57.417Z,10.42
2023-02-20T17:05:29.981Z,10.27
2023-02-20T17:08:03.646Z,10.09
2023-02-20T17:10:30.755Z,9.95
2023-02-20T17:12:58.196Z,9.78
2023-02-20T17:15:27.409Z,9.67
2023-02-20T17:17:57.150Z,9.55
2023-02-20T17:20:26.107Z,9.43
2023-02-20T17:23:03.879Z,9.30
2023-02-20T17:25:31.887Z,9.15
2023-02-20T17:28:00.191Z,9.06
2023-02-20T17:30:29.080Z,8.92
2023-02-20T17:32:58.191Z,8.82
2023-02-20T17:35:24.898Z,8.75
2023-02-20T17:37:51.429Z,8.65
2023-02-20T17:40:17.992Z,8.60
2023-02-20T17:42:44.742Z,8.50
2023-02-20T17:45:11.909Z,8.46
2023-02-20T17:47:39.470Z,8.37
2023-02-20T17:50:08.793Z,8.23
2023-02-20T17:52:35.326Z,8.14
2023-02-20T17:55:01.896Z,8.07
2023-02-20T17:57:34.209Z,7.97
2023-02-20T18:00:00.819Z,7.90
2023-02-20T18:02:27.368Z,7.82
2023-02-20T18:04:55.755Z,7.73
2023-02-20T18:07:22.400Z,7.66
2023-02-20T18:09:55.609Z,7.60
2023-02-20T18:12:22.138Z,7.52
2023-02-20T18:14:48.867Z,7.42
2023-02-20T18:17:15.648Z,7.38
2023-02-20T18:19:42.315Z,7.35
2023-02-20T18:22:10.665Z,7.28
2023-02-20T18:24:37.267Z,7.23
2023-02-20T18:27:04.200Z,7.17
2023-02-20T18:29:30.816Z,7.10
2023-02-20T18:31:57.810Z,7.06
2023-02-20T18:34:30.229Z,7.00
2023-02-20T18:36:57.359Z,6.93
2023-02-20T18:39:24.383Z,6.89
2023-02-20T18:41:57.777Z,6.84
2023-02-20T18:44:24.547Z,6.76
2023-02-20T18:46:54.839Z,6.71
2023-02-20T18:49:23.128Z,6.66
2023-02-20T18:51:49.642Z,6.59
2023-02-20T18:54:24.752Z,6.51
2023-02-20T18:56:55.176Z,6.42
2023-02-20T18:59:23.010Z,6.39
2023-02-20T19:01:49.634Z,6.36
2023-02-20T19:04:16.134Z,6.32
2023-02-20T19:06:46.463Z,6.24
2023-02-20T19:09:24.383Z,6.27
2023-02-20T19:11:57.276Z,6.21
2023-02-20T19:14:26.342Z,6.23
2023-02-20T19:17:00.181Z,6.19
2023-02-20T19:19:30.586Z,6.12
2023-02-20T19:21:58.260Z,6.04
2023-02-20T19:24:24.858Z,5.95
2023-02-20T19:26:52.658Z,5.90
2023-02-20T19:29:19.628Z,5.91
2023-02-20T19:31:46.392Z,5.89
2023-02-20T19:34:14.180Z,5.79
2023-02-20T19:36:44.654Z,5.71
2023-02-20T19:39:15.212Z,5.62
2023-02-20T19:41:42.283Z,5.56
2023-02-20T19:44:15.424Z,5.51
2023-02-20T19:46:41.970Z,5.44
2023-02-20T19:49:12.872Z,5.41
2023-02-20T19:51:46.214Z,5.30
2023-02-20T19:54:12.731Z,5.22
2023-02-20T19:56:39.266Z,5.17
2023-02-20T19:59:05.756Z,5.13
2023-02-20T20:01:34.089Z,5.12
2023-02-20T20:04:00.597Z,5.04
2023-02-20T20:06:29.221Z,4.96
2023-02-20T20:09:12.242Z,4.92
2023-02-20T20:11:40.615Z,4.88
2023-02-20T20:14:07.409Z,4.84
2023-02-20T20:16:37.427Z,4.76
2023-02-20T20:21:57.388Z,4.63
2023-02-20T20:24:23.857Z,4.60
2023-02-20T20:26:50.523Z,4.58
2023-02-20T20:29:17.283Z,4.53
2023-02-20T20:31:43.964Z,4.49
2023-02-20T20:34:10.493Z,4.47
2023-02-20T20:36:37.067Z,4.43
2023-02-20T20:39:04.424Z,4.38
2023-02-20T20:41:44.003Z,4.34
2023-02-20T20:44:15.986Z,4.34
2023-02-20T20:46:42.543Z,4.28
2023-02-20T20:49:12.462Z,4.21
2023-02-20T20:51:38.908Z,4.17
2023-02-20T20:54:07.305Z,4.15
2023-02-20T20:56:34.081Z,4.12
2023-02-20T20:59:00.604Z,4.07
2023-02-20T21:01:27.176Z,4.01
2023-02-20T21:03:53.744Z,3.97
2023-02-20T21:06:22.426Z,3.91
2023-02-20T21:08:50.872Z,3.87
2023-02-20T21:11:17.826Z,3.86
2023-02-20T21:13:49.796Z,3.88
2023-02-20T21:16:17.440Z,3.90
2023-02-20T21:18:44.682Z,3.93
2023-02-20T21:21:12.204Z,3.94
2023-02-20T21:23:45.123Z,3.90
2023-02-20T21:26:12.467Z,3.93
2023-02-20T21:28:39.400Z,3.98
2023-02-20T21:31:07.109Z,4.09
2023-02-20T21:33:33.674Z,4.07
2023-02-20T21:36:01.957Z,4.11
2023-02-20T21:38:28.433Z,4.05
2023-02-20T21:40:55.093Z,3.96
2023-02-20T21:43:40.028Z,3.93
2023-02-20T21:46:08.954Z,3.90
2023-02-20T21:48:37.217Z,3.84
2023-02-20T21:51:03.892Z,3.78
2023-02-20T21:53:30.431Z,3.75
2023-02-20T21:55:57.212Z,3.70
2023-02-20T21:58:44.123Z,3.66
2023-02-20T22:01:13.157Z,3.61
2023-02-20T22:03:39.780Z,3.53
2023-02-20T22:06:06.504Z,3.42
2023-02-20T22:08:51.558Z,3.34
2023-02-20T22:11:36.850Z,3.29
2023-02-20T22:14:21.942Z,3.34
2023-02-20T22:17:12.234Z,3.36
2023-02-20T22:19:57.160Z,3.35
2023-02-20T22:22:44.943Z,3.32
2023-02-20T22:25:30.092Z,3.38
2023-02-20T22:28:15.394Z,3.37
2023-02-20T22:31:00.431Z,3.34
2023-02-20T22:33:47.151Z,3.37
2023-02-20T22:36:32.497Z,3.32
2023-02-20T22:39:17.908Z,3.27
2023-02-20T22:42:03.392Z,3.29
2023-02-20T22:44:48.700Z,3.29
2023-02-20T22:47:33.700Z,3.23
2023-02-20T22:50:18.971Z,3.16
2023-02-20T22:53:04.288Z,3.11
2023-02-20T22:55:49.414Z,3.10
2023-02-20T22:58:36.399Z,3.05
2023-02-20T23:01:21.201Z,2.99
2023-02-20T23:04:06.312Z,3.01
2023-02-20T23:06:51.315Z,2.93
2023-02-20T23:09:36.591Z,2.90
2023-02-20T23:12:21.983Z,2.84
2023-02-20T23:15:09.282Z,2.82
2023-02-20T23:17:54.402Z,2.77
2023-02-20T23:20:44.505Z,2.70
2023-02-20T23:23:29.904Z,2.63
2023-02-20T23:26:16.720Z,2.58
2023-02-20T23:29:01.965Z,2.58
2023-02-20T23:31:58.947Z,2.55
2023-02-20T23:34:45.856Z,2.48
2023-02-20T23:37:33.432Z,2.44
2023-02-20T23:40:24.043Z,2.39
2023-02-20T23:43:17.373Z,2.32
2023-02-20T23:46:02.268Z,2.28
2023-02-20T23:48:50.522Z,2.21
2023-02-20T23:51:36.317Z,2.10
2023-02-20T23:54:21.586Z,2.03
2023-02-20T23:57:07.093Z,1.96
2023-02-20T23:59:54.583Z,1.91
